Colelache, Argentina
Current Conditions -  °F | °C
As of 10:00 AM on Saturday 01 Nov 2014 (Local Time) from SAVE Reporting Station
Few Clouds Few Clouds  
Wind Chill: 33°   Ceiling: Unl
Heat Index: 41°   Visibility: 6mi
Dew Point: 19°   Wind: 16mph
Humidity: 42%   Direction: 70°ENE
Pressure: 30.42"   Gusts: NA
Location:  42.46°S, 66.7°W
Report Text: SAVE 011300Z 07014KT 9999 FEW035 05/M07 Q1030
Loading
Personal Weather Stations






























Interactive Weather Map
Tropical Storm Tracking
New forecast layout! Learn more

10-Day Weather Forecast

Advertisements
Track Severe Weather on mobile